Time;durP1;ratioP1;P1;durP2;ratioP2;P2;SDS_P1;SDS_P2;PMS_P1;PMS_P2;Temp;Humidity;BMP_temperature;BMP_pressure;BME280_temperature;BME280_humidity;BME280_pressure;Samples;Min_cycle;Max_cycle;Signal;HPM_P1;HPM_P2
2023/09/20 00:02:13;;;;;;;40.30;38.23;;;;;;;16.63;100.00;100326.13;4933189;29;20469;-40
2023/09/20 00:04:42;;;;;;;41.83;39.60;;;;;;;16.62;100.00;100321.78;4933919;29;20790;-39
2023/09/20 00:07:10;;;;;;;40.53;38.33;;;;;;;16.63;100.00;100328.81;4932675;29;20888;-37
2023/09/20 00:09:40;;;;;;;42.20;39.77;;;;;;;16.59;100.00;100315.03;4932954;29;20618;-38
2023/09/20 00:12:08;;;;;;;38.37;36.77;;;;;;;16.63;100.00;100331.50;4933393;29;20536;-41
2023/09/20 00:14:36;;;;;;;41.53;39.63;;;;;;;16.64;100.00;100326.91;4933109;29;20433;-38
2023/09/20 00:17:04;;;;;;;40.77;39.00;;;;;;;16.64;100.00;100329.59;4932855;29;20441;-39
2023/09/20 00:19:32;;;;;;;41.20;38.93;;;;;;;16.62;100.00;100334.44;4933319;29;20433;-38
2023/09/20 00:22:00;;;;;;;43.73;41.53;;;;;;;16.67;100.00;100332.63;4933291;29;20976;-40
2023/09/20 00:24:28;;;;;;;42.10;39.57;;;;;;;16.66;100.00;100346.34;4932964;29;20992;-38
2023/09/20 00:26:57;;;;;;;40.30;38.47;;;;;;;16.69;100.00;100332.41;4932952;29;20996;-40
2023/09/20 00:29:26;;;;;;;42.60;40.70;;;;;;;16.70;100.00;100339.38;4932805;29;20555;-38
2023/09/20 00:31:55;;;;;;;44.40;40.90;;;;;;;16.71;100.00;100341.84;4933575;29;20544;-37
2023/09/20 00:34:23;;;;;;;41.40;39.17;;;;;;;16.71;100.00;100352.63;4933167;29;20440;-41
2023/09/20 00:36:51;;;;;;;41.33;39.33;;;;;;;16.71;100.00;100344.53;4933121;29;21108;-37
2023/09/20 00:39:19;;;;;;;42.30;40.03;;;;;;;16.72;100.00;100354.25;4931631;29;20557;-38
2023/09/20 00:41:48;;;;;;;43.03;40.93;;;;;;;16.71;100.00;100347.25;4933310;29;20455;-39
2023/09/20 00:44:17;;;;;;;42.83;40.77;;;;;;;16.71;100.00;100344.53;4933091;29;20930;-40
2023/09/20 00:46:46;;;;;;;42.50;40.47;;;;;;;16.76;100.00;100351.88;4932613;29;20444;-41
2023/09/20 00:49:14;;;;;;;40.33;38.43;;;;;;;16.75;100.00;100356.47;4932080;29;20535;-41
2023/09/20 00:51:44;;;;;;;40.07;37.97;;;;;;;16.74;100.00;100351.31;4932162;29;20532;-39
2023/09/20 00:54:13;;;;;;;41.63;39.53;;;;;;;16.75;100.00;100351.09;4933091;29;20444;-38
2023/09/20 00:56:41;;;;;;;40.33;38.33;;;;;;;16.79;100.00;100356.75;4933133;29;20436;-39
2023/09/20 00:59:10;;;;;;;41.80;39.47;;;;;;;16.78;100.00;100352.47;4932433;29;20466;-38
2023/09/20 01:01:40;;;;;;;40.77;38.40;;;;;;;16.81;100.00;100357.34;4932554;29;20533;-38
2023/09/20 01:04:10;;;;;;;40.90;38.57;;;;;;;16.80;100.00;100348.44;4932181;29;21040;-40
2023/09/20 01:06:41;;;;;;;39.67;37.57;;;;;;;16.82;100.00;100353.56;4932729;29;20499;-38
2023/09/20 01:09:09;;;;;;;40.53;38.10;;;;;;;16.84;100.00;100351.47;4924872;29;20470;-39
2023/09/20 01:11:37;;;;;;;38.27;35.77;;;;;;;16.86;100.00;100355.56;4932586;29;20467;-40
2023/09/20 01:14:05;;;;;;;39.53;37.00;;;;;;;16.91;100.00;100354.78;4932224;29;20440;-40
2023/09/20 01:16:34;;;;;;;39.07;36.30;;;;;;;16.92;100.00;100365.34;4932030;29;20508;-40
2023/09/20 01:19:04;;;;;;;40.00;37.57;;;;;;;16.93;100.00;100353.50;4931876;29;20460;-38
2023/09/20 01:21:40;;;;;;;38.73;36.27;;;;;;;16.94;100.00;100368.59;4932681;29;20457;-38
2023/09/20 01:24:09;;;;;;;40.77;38.07;;;;;;;16.97;100.00;100357.31;4932180;29;20476;-38
2023/09/20 01:26:39;;;;;;;40.97;38.27;;;;;;;17.01;100.00;100368.41;4932563;29;20444;-39
2023/09/20 01:29:07;;;;;;;40.57;38.47;;;;;;;16.98;100.00;100360.84;4923893;29;20468;-42
2023/09/20 01:31:37;;;;;;;40.63;38.17;;;;;;;17.00;100.00;100358.69;4932090;29;20441;-39
2023/09/20 01:34:04;;;;;;;39.23;37.10;;;;;;;17.01;100.00;100358.47;4931699;29;20460;-40
2023/09/20 01:36:32;;;;;;;39.33;36.90;;;;;;;17.01;100.00;100355.78;4932261;29;21020;-38
2023/09/20 01:39:01;;;;;;;40.40;38.50;;;;;;;17.03;100.00;100361.72;4932204;29;20480;-42
2023/09/20 01:41:30;;;;;;;38.80;36.70;;;;;;;17.08;100.00;100355.59;4931988;29;20896;-38
2023/09/20 01:43:58;;;;;;;39.30;36.87;;;;;;;17.04;100.00;100363.34;4932460;29;20480;-39
2023/09/20 01:46:26;;;;;;;39.73;37.13;;;;;;;17.07;100.00;100359.34;4931599;29;20807;-38
2023/09/20 01:48:54;;;;;;;39.80;37.77;;;;;;;17.10;100.00;100358.84;4936511;29;20468;-40
2023/09/20 01:51:23;;;;;;;42.00;39.67;;;;;;;17.11;100.00;100357.81;4936436;29;21063;-39
2023/09/20 01:53:51;;;;;;;41.97;39.37;;;;;;;17.14;100.00;100357.31;4937189;29;20853;-40
2023/09/20 01:56:21;;;;;;;40.57;38.47;;;;;;;17.13;100.00;100356.47;4937238;29;20443;-40
2023/09/20 01:58:50;;;;;;;42.00;39.60;;;;;;;17.14;100.00;100355.41;4936306;29;21007;-41
2023/09/20 02:01:17;;;;;;;42.13;40.03;;;;;;;17.17;100.00;100356.81;4936080;29;20544;-40
2023/09/20 02:03:45;;;;;;;42.40;39.70;;;;;;;17.19;100.00;100370.00;4935742;29;20484;-42
2023/09/20 02:06:13;;;;;;;44.77;41.90;;;;;;;17.20;100.00;100358.19;4935572;29;20467;-43
2023/09/20 02:08:41;;;;;;;42.07;39.60;;;;;;;17.15;100.00;100367.81;4935556;28;21007;-39
2023/09/20 02:11:09;;;;;;;42.87;40.07;;;;;;;17.18;100.00;100366.50;4937023;29;20444;-39
2023/09/20 02:13:39;;;;;;;41.83;39.37;;;;;;;17.19;100.00;100364.63;4938419;29;20439;-38
2023/09/20 02:16:07;;;;;;;41.03;38.40;;;;;;;17.17;100.00;100358.69;4930348;29;20440;-39
2023/09/20 02:18:36;;;;;;;41.50;39.30;;;;;;;17.18;100.00;100363.81;4937444;29;20460;-38
2023/09/20 02:21:04;;;;;;;39.30;37.30;;;;;;;17.17;100.00;100354.91;4940720;29;20435;-39
2023/09/20 02:23:31;;;;;;;42.73;39.67;;;;;;;17.24;100.00;100370.91;4941509;29;20460;-38
2023/09/20 02:25:59;;;;;;;40.33;37.87;;;;;;;17.25;100.00;100359.06;4940974;29;20953;-39
2023/09/20 02:28:27;;;;;;;41.63;39.23;;;;;;;17.23;100.00;100358.50;4941338;29;20841;-40
2023/09/20 02:30:56;;;;;;;41.50;39.20;;;;;;;17.27;100.00;100354.22;4940626;29;20437;-38
2023/09/20 02:33:24;;;;;;;42.33;39.80;;;;;;;17.26;100.00;100357.19;4941119;29;20933;-39
2023/09/20 02:35:52;;;;;;;44.83;42.13;;;;;;;17.27;100.00;100356.94;4940593;29;20433;-39
2023/09/20 02:38:21;;;;;;;45.67;42.93;;;;;;;17.27;100.00;100353.41;4940309;29;20465;-39
2023/09/20 02:40:50;;;;;;;44.23;41.57;;;;;;;17.22;100.00;100351.47;4939597;29;20441;-38
2023/09/20 02:43:18;;;;;;;42.40;39.90;;;;;;;17.24;100.00;100356.59;4940927;29;20514;-38
2023/09/20 02:45:46;;;;;;;42.57;40.27;;;;;;;17.26;100.00;100355.31;4940730;29;21014;-38
2023/09/20 02:48:15;;;;;;;40.37;38.17;;;;;;;17.26;100.00;100349.94;4939878;29;20531;-38
2023/09/20 02:50:44;;;;;;;42.73;39.13;;;;;;;17.26;100.00;100359.88;4939774;29;20460;-38
2023/09/20 02:53:12;;;;;;;43.70;40.97;;;;;;;17.28;100.00;100363.97;4947823;28;20828;-38
2023/09/20 02:55:40;;;;;;;43.40;40.27;;;;;;;17.29;100.00;100351.31;4939974;29;20503;-37
2023/09/20 02:58:09;;;;;;;41.80;38.90;;;;;;;17.33;100.00;100352.41;4939142;29;20555;-38
2023/09/20 03:00:38;;;;;;;41.97;39.40;;;;;;;17.31;100.00;100349.16;4938374;29;20985;-40
2023/09/20 03:03:07;;;;;;;39.93;37.80;;;;;;;17.34;100.00;100343.28;4938796;29;20515;-40
2023/09/20 03:05:37;;;;;;;39.50;37.30;;;;;;;17.34;100.00;100340.56;4938581;29;20527;-38
2023/09/20 03:08:11;;;;;;;42.70;39.90;;;;;;;17.32;100.00;100343.53;4937701;29;20467;-39
2023/09/20 03:10:41;;;;;;;40.67;38.67;;;;;;;17.32;100.00;100354.31;4938901;29;20437;-39
2023/09/20 03:13:12;;;;;;;40.50;38.50;;;;;;;17.35;100.00;100347.59;4937674;29;20453;-41
2023/09/20 03:15:43;;;;;;;41.33;38.67;;;;;;;17.35;100.00;100342.22;4938754;29;20524;-41
2023/09/20 03:18:14;;;;;;;40.83;38.63;;;;;;;17.37;100.00;100348.16;4938431;29;20467;-41
2023/09/20 03:20:48;;;;;;;42.40;39.37;;;;;;;17.36;100.00;100335.75;4938354;29;20999;-39
2023/09/20 03:23:16;;;;;;;43.77;41.17;;;;;;;17.32;100.00;100345.41;4931735;29;20468;-41
2023/09/20 03:25:43;;;;;;;42.30;39.70;;;;;;;17.32;100.00;100353.50;4939329;29;20528;-38
2023/09/20 03:28:11;;;;;;;42.37;39.73;;;;;;;17.34;100.00;100340.56;4938327;29;20540;-40
2023/09/20 03:30:39;;;;;;;43.73;40.70;;;;;;;17.33;100.00;100347.03;4939227;29;20971;-39
2023/09/20 03:33:08;;;;;;;42.53;40.30;;;;;;;17.33;100.00;100337.06;4940200;29;20451;-43
2023/09/20 03:35:37;;;;;;;41.83;39.43;;;;;;;17.32;100.00;100345.41;4942284;29;20436;-41
2023/09/20 03:38:08;;;;;;;40.27;38.17;;;;;;;17.34;100.00;100354.06;4939014;29;20856;-39
2023/09/20 03:40:37;;;;;;;42.33;39.93;;;;;;;17.34;100.00;100356.75;4939882;29;20432;-43
2023/09/20 03:43:07;;;;;;;45.43;42.83;;;;;;;17.34;100.00;100359.44;4939505;29;20737;-44
2023/09/20 03:45:35;;;;;;;42.60;40.33;;;;;;;17.32;100.00;100359.72;4940647;29;20468;-41
2023/09/20 03:48:05;;;;;;;46.60;44.30;;;;;;;17.34;100.00;100364.84;4938921;29;20467;-40
2023/09/20 03:50:33;;;;;;;44.63;41.93;;;;;;;17.30;100.00;100361.00;4938999;29;20447;-42
2023/09/20 03:53:01;;;;;;;43.73;41.23;;;;;;;17.32;100.00;100361.59;4939337;29;20456;-39
2023/09/20 03:55:30;;;;;;;43.43;41.03;;;;;;;17.32;100.00;100372.34;4939491;29;20433;-43
2023/09/20 03:57:58;;;;;;;40.90;38.80;;;;;;;17.29;100.00;100351.31;4939644;28;21004;-40
2023/09/20 04:00:27;;;;;;;42.17;39.80;;;;;;;17.32;100.00;100358.88;4939386;29;20889;-42
2023/09/20 04:02:56;;;;;;;41.07;38.67;;;;;;;17.36;100.00;100357.31;4940890;29;20460;-40
2023/09/20 04:05:24;;;;;;;43.00;39.93;;;;;;;17.33;100.00;100352.41;4939911;29;20482;-40
2023/09/20 04:08:11;;;;;;;42.33;39.70;;;;;;;17.35;100.00;100353.00;4939498;29;20508;-43
2023/09/20 04:10:40;;;;;;;42.13;39.93;;;;;;;17.36;100.00;100346.53;4940111;29;20447;-41
2023/09/20 04:13:09;;;;;;;42.53;39.93;;;;;;;17.36;100.00;100360.00;4937239;29;20465;-40
2023/09/20 04:15:38;;;;;;;40.90;38.40;;;;;;;17.38;100.00;100361.38;4937095;29;20491;-43
2023/09/20 04:18:08;;;;;;;42.87;40.70;;;;;;;17.40;100.00;100359.25;4936819;29;20476;-39
2023/09/20 04:20:36;;;;;;;43.73;41.00;;;;;;;17.40;100.00;100363.84;4938063;29;20516;-40
2023/09/20 04:23:06;;;;;;;44.70;42.03;;;;;;;17.41;100.00;100360.88;4936885;29;20492;-39
2023/09/20 04:25:34;;;;;;;44.10;41.30;;;;;;;17.40;100.00;100359.25;4937213;29;20562;-39
2023/09/20 04:28:03;;;;;;;45.40;42.93;;;;;;;17.38;100.00;100366.75;4936625;29;20551;-41
2023/09/20 04:30:31;;;;;;;46.00;43.20;;;;;;;17.33;100.00;100363.19;4936720;29;20436;-42
2023/09/20 04:32:59;;;;;;;46.80;43.73;;;;;;;17.32;100.00;100369.66;4936989;29;20460;-39
2023/09/20 04:35:27;;;;;;;45.80;43.27;;;;;;;17.30;100.00;100377.16;4937604;29;20437;-40
2023/09/20 04:37:55;;;;;;;45.73;43.00;;;;;;;17.29;100.00;100365.59;4936374;29;20467;-39
2023/09/20 04:40:24;;;;;;;42.60;40.27;;;;;;;17.28;100.00;100376.59;4936148;29;20495;-38
2023/09/20 04:42:51;;;;;;;42.80;40.60;;;;;;;17.28;100.00;100376.59;4934798;29;21177;-40
2023/09/20 04:45:22;;;;;;;44.77;41.83;;;;;;;17.26;100.00;100384.13;4936558;29;20472;-40
2023/09/20 04:47:50;;;;;;;43.37;41.00;;;;;;;17.26;100.00;100382.25;4941885;28;20470;-41
2023/09/20 04:50:18;;;;;;;46.03;43.60;;;;;;;17.23;100.00;100380.06;4940336;29;20469;-40
2023/09/20 04:52:50;;;;;;;43.27;40.60;;;;;;;17.26;100.00;100379.56;4955300;28;20974;-41
2023/09/20 04:55:19;;;;;;;42.73;40.20;;;;;;;17.27;100.00;100383.88;4936712;29;20508;-39
2023/09/20 04:57:47;;;;;;;42.30;40.00;;;;;;;17.27;100.00;100383.88;4951526;28;21047;-38
2023/09/20 05:00:20;;;;;;;44.60;41.90;;;;;;;17.28;100.00;100385.50;4951658;29;20476;-39
2023/09/20 05:02:50;;;;;;;46.77;43.90;;;;;;;17.31;100.00;100386.88;4951469;28;20467;-39
2023/09/20 05:05:18;;;;;;;45.40;42.80;;;;;;;17.29;100.00;100389.03;4947849;29;20923;-41
2023/09/20 05:07:46;;;;;;;46.67;44.10;;;;;;;17.26;100.00;100389.53;4954841;28;20468;-39
2023/09/20 05:10:14;;;;;;;47.03;44.33;;;;;;;17.27;100.00;100383.06;4948495;29;20472;-40
2023/09/20 05:12:42;;;;;;;47.93;45.40;;;;;;;17.25;100.00;100393.28;4957029;28;20455;-42
2023/09/20 05:15:12;;;;;;;46.70;44.10;;;;;;;17.22;100.00;100393.78;4956072;29;20466;-39
2023/09/20 05:17:41;;;;;;;48.90;46.30;;;;;;;17.19;100.00;100388.88;4957115;28;20852;-38
2023/09/20 05:20:13;;;;;;;46.50;43.97;;;;;;;17.20;100.00;100396.72;4956786;28;20442;-41
2023/09/20 05:22:41;;;;;;;43.60;41.13;;;;;;;17.18;100.00;100396.13;4956984;28;20468;-41
2023/09/20 05:25:09;;;;;;;43.20;40.90;;;;;;;17.20;100.00;100406.69;4956003;29;20440;-41
2023/09/20 05:27:37;;;;;;;41.70;39.13;;;;;;;17.16;100.00;100390.19;4951913;28;21014;-39
2023/09/20 05:30:06;;;;;;;41.13;38.83;;;;;;;17.15;100.00;100393.94;4937431;29;20561;-39
2023/09/20 05:32:35;;;;;;;44.93;42.33;;;;;;;17.17;100.00;100397.22;4938695;29;20484;-39
2023/09/20 05:35:06;;;;;;;40.83;38.43;;;;;;;17.22;100.00;100388.38;4937504;29;20447;-38
2023/09/20 05:37:38;;;;;;;39.67;37.57;;;;;;;17.24;100.00;100399.72;4936947;29;20460;-38
2023/09/20 05:40:13;;;;;;;38.47;36.50;;;;;;;17.27;100.00;100385.75;4935942;29;20953;-39
2023/09/20 05:42:41;;;;;;;39.93;37.73;;;;;;;17.33;100.00;100395.53;4936308;29;20459;-40
2023/09/20 05:45:09;;;;;;;37.93;35.80;;;;;;;17.39;100.00;100386.44;4936886;29;20472;-39
2023/09/20 05:47:37;;;;;;;37.90;36.00;;;;;;;17.39;100.00;100383.75;4936058;29;21086;-39
2023/09/20 05:50:06;;;;;;;39.83;37.73;;;;;;;17.39;100.00;100386.44;4934906;29;20471;-38
2023/09/20 05:52:37;;;;;;;38.10;36.03;;;;;;;17.42;100.00;100384.06;4935558;29;20457;-39
2023/09/20 05:55:10;;;;;;;36.77;34.90;;;;;;;17.42;100.00;100378.69;4941121;29;20711;-44
2023/09/20 05:57:38;;;;;;;36.43;34.33;;;;;;;17.51;100.00;100370.97;4940665;29;20460;-41
2023/09/20 06:00:18;;;;;;;36.20;34.37;;;;;;;17.53;100.00;100388.53;4940458;29;20436;-41
2023/09/20 06:02:47;;;;;;;35.40;33.37;;;;;;;17.57;100.00;100388.88;4940130;29;20467;-42
2023/09/20 06:05:15;;;;;;;36.70;34.90;;;;;;;17.56;100.00;100379.97;4940451;29;20999;-39
2023/09/20 06:07:45;;;;;;;36.43;34.43;;;;;;;17.61;100.00;100382.75;4940066;29;20468;-41
2023/09/20 06:10:13;;;;;;;38.20;36.30;;;;;;;17.63;100.00;100395.97;4940300;29;20463;-41
2023/09/20 06:12:40;;;;;;;39.60;37.50;;;;;;;17.63;100.00;100388.69;4941183;29;21050;-39
2023/09/20 06:15:13;;;;;;;39.93;37.90;;;;;;;17.59;100.00;100392.94;4940496;29;20522;-38
2023/09/20 06:17:42;;;;;;;36.63;34.73;;;;;;;17.58;100.00;100395.91;4939171;28;20507;-38
2023/09/20 06:20:12;;;;;;;41.00;38.77;;;;;;;17.59;100.00;100400.25;4939835;29;20876;-42
2023/09/20 06:22:40;;;;;;;37.60;35.60;;;;;;;17.65;100.00;100400.03;4941042;29;20778;-38
2023/09/20 06:25:11;;;;;;;35.87;33.90;;;;;;;17.65;100.00;100394.66;4939535;29;20444;-38
2023/09/20 06:27:40;;;;;;;37.00;34.90;;;;;;;17.62;100.00;100402.44;4939957;29;20495;-39
2023/09/20 06:30:12;;;;;;;36.67;34.47;;;;;;;17.64;100.00;100409.22;4939671;29;20936;-39
2023/09/20 06:32:40;;;;;;;38.93;36.77;;;;;;;17.63;100.00;100404.06;4939489;29;20832;-38
2023/09/20 06:35:09;;;;;;;37.80;35.70;;;;;;;17.61;100.00;100408.88;4940095;29;20463;-37
2023/09/20 06:37:38;;;;;;;36.93;35.07;;;;;;;17.59;100.00;100403.72;4939323;29;20479;-39
2023/09/20 06:40:15;;;;;;;37.07;35.00;;;;;;;17.60;100.00;100408.06;4939350;29;20464;-39
2023/09/20 06:42:44;;;;;;;33.83;32.23;;;;;;;17.61;100.00;100409.72;4939441;29;20456;-37
2023/09/20 06:45:12;;;;;;;37.57;34.83;;;;;;;17.57;100.00;100413.97;4939516;29;20471;-43
2023/09/20 06:47:40;;;;;;;37.27;35.40;;;;;;;17.62;100.00;100418.63;4939215;29;20888;-38
2023/09/20 06:50:09;;;;;;;36.33;34.63;;;;;;;17.59;100.00;100417.22;4939974;29;20444;-40
2023/09/20 06:52:37;;;;;;;36.60;34.90;;;;;;;17.60;100.00;100413.47;4939744;29;20460;-41
2023/09/20 06:55:06;;;;;;;34.40;32.40;;;;;;;17.63;100.00;100422.94;4939821;29;20808;-40
2023/09/20 06:57:33;;;;;;;34.13;32.17;;;;;;;17.62;100.00;100419.41;4939095;29;20483;-40
2023/09/20 07:00:16;;;;;;;34.30;32.80;;;;;;;17.66;100.00;100427.81;4939059;29;20432;-38
2023/09/20 07:02:43;;;;;;;32.63;30.93;;;;;;;17.72;100.00;100418.72;4939013;29;20468;-45
2023/09/20 07:05:11;;;;;;;31.67;30.20;;;;;;;17.76;100.00;100419.88;4938192;29;20915;-40
2023/09/20 07:07:39;;;;;;;31.87;30.47;;;;;;;17.84;100.00;100422.13;4939051;29;20519;-42
2023/09/20 07:10:08;;;;;;;33.30;31.10;;;;;;;17.84;100.00;100421.28;4939020;29;20531;-39
2023/09/20 07:12:38;;;;;;;32.67;30.40;;;;;;;17.97;100.00;100410.13;4938716;29;20460;-38
2023/09/20 07:15:09;;;;;;;32.57;30.67;;;;;;;18.14;100.00;100413.53;4938529;29;20460;-40
2023/09/20 07:17:40;;;;;;;31.80;30.20;;;;;;;18.29;100.00;100418.28;4938756;29;20551;-41
2023/09/20 07:20:14;;;;;;;30.60;29.00;;;;;;;18.40;100.00;100425.44;4938851;29;20444;-43
2023/09/20 07:22:43;;;;;;;31.73;29.93;;;;;;;18.49;100.00;100429.31;4939215;29;20490;-39
2023/09/20 07:25:17;;;;;;;31.07;29.17;;;;;;;18.61;100.00;100419.97;4938694;29;20429;-42
2023/09/20 07:27:45;;;;;;;32.40;30.43;;;;;;;18.73;100.00;100419.81;4933941;29;20525;-40
2023/09/20 07:30:19;;;;;;;31.53;30.03;;;;;;;18.85;100.00;100420.44;4937169;29;20862;-44
2023/09/20 07:32:48;;;;;;;31.67;30.07;;;;;;;18.99;100.00;100418.13;4938798;29;20460;-40
2023/09/20 07:35:38;;;;;;;30.57;29.27;;;;;;;19.09;100.00;100419.00;4932096;29;20428;-38
2023/09/20 07:38:12;;;;;;;32.17;30.47;;;;;;;19.03;100.00;100427.31;4938409;29;20479;-40
2023/09/20 07:40:41;;;;;;;33.10;31.43;;;;;;;19.05;100.00;100425.19;4938399;29;20941;-41
2023/09/20 07:43:10;;;;;;;32.63;30.73;;;;;;;19.00;100.00;100425.13;4938660;29;20518;-41
2023/09/20 07:45:50;;;;;;;33.10;31.10;;;;;;;18.96;100.00;100432.97;4938555;29;20436;-44
2023/09/20 07:48:21;;;;;;;33.40;31.43;;;;;;;18.90;100.00;100428.59;4938546;29;20531;-39
2023/09/20 07:50:50;;;;;;;33.90;31.63;;;;;;;18.88;100.00;100440.72;4938906;29;20455;-39
2023/09/20 07:53:19;;;;;;;32.70;30.67;;;;;;;18.87;100.00;100441.81;4939371;29;20544;-38
2023/09/20 07:55:58;;;;;;;31.50;29.80;;;;;;;18.83;100.00;100438.81;4938779;29;20440;-42
2023/09/20 07:58:26;;;;;;;32.47;30.67;;;;;;;18.85;100.00;100442.06;4930357;28;20548;-39
2023/09/20 08:00:57;;;;;;;32.73;30.80;;;;;;;18.88;100.00;100451.53;4938028;29;20460;-39
2023/09/20 08:03:28;;;;;;;33.80;31.40;;;;;;;18.91;100.00;100445.59;4938727;29;20807;-41
2023/09/20 08:05:56;;;;;;;31.17;29.27;;;;;;;18.92;100.00;100441.84;4938569;29;20456;-42
2023/09/20 08:08:24;;;;;;;31.00;29.50;;;;;;;18.92;100.00;100450.78;4937206;29;20468;-40
2023/09/20 08:10:52;;;;;;;30.80;28.90;;;;;;;18.88;100.00;100449.66;4937660;29;20997;-38
2023/09/20 08:13:39;;;;;;;32.47;30.77;;;;;;;18.89;100.00;100447.75;4937655;29;20527;-41
2023/09/20 08:16:12;;;;;;;33.40;31.40;;;;;;;18.92;100.00;100449.94;4938117;29;20440;-40
2023/09/20 08:21:26;;;;;;;31.40;29.80;;;;;;;18.77;100.00;100447.94;4938286;29;20480;-41
2023/09/20 09:00:19;;;;;;;32.63;30.83;;;;;;;18.93;100.00;100473.22;4938750;29;21117;-39
2023/09/20 09:02:51;;;;;;;32.17;30.20;;;;;;;18.98;100.00;100474.06;4939143;29;20476;-40
2023/09/20 09:05:23;;;;;;;29.83;28.20;;;;;;;18.89;100.00;100470.19;4939669;29;20440;-41
2023/09/20 09:07:51;;;;;;;32.07;30.10;;;;;;;18.92;100.00;100477.78;4939190;29;20515;-39
2023/09/20 09:10:19;;;;;;;29.90;28.00;;;;;;;19.00;100.00;100480.00;4938949;29;20857;-41
2023/09/20 09:12:47;;;;;;;30.37;28.87;;;;;;;19.11;100.00;100481.75;4939654;29;20490;-41
2023/09/20 09:15:16;;;;;;;30.17;28.50;;;;;;;19.22;100.00;100493.44;4938371;29;20440;-39
2023/09/20 09:17:46;;;;;;;28.70;27.13;;;;;;;19.28;100.00;100484.28;4937118;28;20475;-41
2023/09/20 09:20:15;;;;;;;29.77;28.13;;;;;;;19.41;100.00;100488.47;4937095;29;20605;-42
2023/09/20 09:22:45;;;;;;;29.47;27.87;;;;;;;19.41;100.00;100489.28;4939319;29;20968;-39
2023/09/20 09:25:16;;;;;;;30.90;29.13;;;;;;;19.47;100.00;100490.13;4939298;29;20446;-39
2023/09/20 09:27:44;;;;;;;28.47;27.27;;;;;;;19.51;100.00;100489.34;4935904;28;20464;-38
2023/09/20 09:30:13;;;;;;;32.03;29.90;;;;;;;19.50;100.00;100485.03;4939204;29;21182;-38
2023/09/20 09:32:43;;;;;;;29.67;28.33;;;;;;;19.51;100.00;100492.03;4939790;29;20470;-41
2023/09/20 09:35:12;;;;;;;29.70;28.40;;;;;;;19.56;100.00;100491.25;4938984;29;20435;-38
2023/09/20 09:37:43;;;;;;;31.10;29.67;;;;;;;19.66;100.00;100491.31;4939274;29;20538;-38
2023/09/20 09:40:14;;;;;;;30.53;28.97;;;;;;;19.71;100.00;100499.47;4939047;29;20468;-37
2023/09/20 09:42:43;;;;;;;30.53;29.10;;;;;;;19.73;100.00;100497.31;4939157;29;20452;-39
2023/09/20 09:45:12;;;;;;;31.40;29.70;;;;;;;19.73;100.00;100495.44;4939413;29;20690;-39
2023/09/20 09:47:41;;;;;;;30.27;28.47;;;;;;;19.78;100.00;100503.56;4938643;29;20499;-39
2023/09/20 09:50:10;;;;;;;27.80;26.60;;;;;;;19.83;100.00;100498.16;4938821;29;20803;-39
2023/09/20 09:52:39;;;;;;;27.77;26.63;;;;;;;19.75;100.00;100495.97;4938768;29;20452;-38
2023/09/20 09:55:07;;;;;;;29.47;28.13;;;;;;;19.70;100.00;100497.84;4938626;29;20440;-40
2023/09/20 09:57:37;;;;;;;30.10;28.20;;;;;;;19.69;100.00;100498.91;4938113;29;20454;-38
2023/09/20 10:00:10;;;;;;;28.80;27.03;;;;;;;19.62;100.00;100507.25;4938676;29;20963;-38
2023/09/20 10:02:42;;;;;;;29.43;27.93;;;;;;;19.62;100.00;100509.94;4938860;29;20470;-39
2023/09/20 10:05:14;;;;;;;28.50;27.10;;;;;;;19.66;100.00;100515.66;4939159;29;20483;-38
2023/09/20 10:07:45;;;;;;;29.47;27.77;;;;;;;19.67;100.00;100510.00;4938610;29;21015;-41
2023/09/20 10:10:13;;;;;;;28.20;26.93;;;;;;;19.65;100.00;100505.94;4938665;29;20519;-38
2023/09/20 10:12:45;;;;;;;27.30;25.90;;;;;;;19.72;100.00;100511.91;4938038;29;20510;-38
2023/09/20 10:15:15;;;;;;;28.63;27.13;;;;;;;19.77;100.00;100509.25;4938711;29;20500;-40
2023/09/20 10:17:52;;;;;;;27.47;26.17;;;;;;;20.01;100.00;100505.00;4938783;28;20499;-40
2023/09/20 10:20:20;;;;;;;27.23;25.60;;;;;;;20.24;100.00;100501.88;4937991;29;20459;-38
2023/09/20 10:22:49;;;;;;;28.47;27.03;;;;;;;20.43;100.00;100504.91;4938282;29;20455;-38
2023/09/20 10:25:31;;;;;;;27.37;26.00;;;;;;;20.66;100.00;100507.16;4938839;29;20491;-41
2023/09/20 10:28:03;;;;;;;27.17;25.40;;;;;;;20.86;100.00;100511.78;4937799;28;20483;-40
2023/09/20 10:30:34;;;;;;;27.70;26.10;;;;;;;21.04;100.00;100505.00;4937973;29;20436;-42
2023/09/20 10:33:04;;;;;;;27.00;25.83;;;;;;;21.01;100.00;100510.97;4935521;29;20514;-40
2023/09/20 10:35:33;;;;;;;26.67;25.13;;;;;;;20.91;100.00;100511.78;4934839;29;20432;-39
2023/09/20 10:38:22;;;;;;;27.37;26.00;;;;;;;20.85;100.00;100513.69;4934030;29;20462;-43
2023/09/20 10:41:07;;;;;;;26.77;25.47;;;;;;;20.93;100.00;100513.16;4933082;29;20539;-42
2023/09/20 10:43:50;;;;;;;24.80;23.80;;;;;;;21.12;100.00;100499.88;4936012;29;20511;-39
2023/09/20 10:46:22;;;;;;;25.50;24.10;;;;;;;21.37;100.00;100504.50;4935888;29;20440;-39
2023/09/20 10:48:51;;;;;;;24.93;23.73;;;;;;;21.55;100.00;100508.53;4935476;29;20468;-39
2023/09/20 10:51:41;;;;;;;25.60;24.40;;;;;;;21.71;100.00;100502.00;4935076;29;20456;-38
2023/09/20 10:54:26;;;;;;;25.83;24.83;;;;;;;21.84;100.00;100498.69;4934567;29;20436;-39
2023/09/20 10:57:03;;;;;;;23.90;22.60;;;;;;;21.72;100.00;100506.31;4935353;29;20428;-38
2023/09/20 10:59:32;;;;;;;24.90;23.80;;;;;;;21.65;100.00;100498.47;4935456;29;20498;-38
2023/09/20 11:02:05;;;;;;;23.27;22.27;;;;;;;21.65;100.00;100497.66;4935542;29;20976;-41
2023/09/20 11:04:34;;;;;;;23.80;22.77;;;;;;;21.64;100.00;100496.03;4936325;29;20486;-38
2023/09/20 11:07:02;;;;;;;24.10;23.07;;;;;;;21.59;100.00;100490.63;4935567;29;20515;-39
2023/09/20 11:09:35;;;;;;;25.27;23.93;;;;;;;21.53;100.00;100506.09;4934789;29;20488;-38
2023/09/20 11:12:06;;;;;;;25.13;24.03;;;;;;;21.79;100.00;100496.00;4934973;29;20515;-38
2023/09/20 11:14:38;;;;;;;24.57;23.47;;;;;;;21.84;100.00;100494.06;4934702;29;20524;-38
2023/09/20 11:17:10;;;;;;;23.43;22.33;;;;;;;22.05;100.00;100492.13;4935449;29;20435;-43
2023/09/20 11:19:40;;;;;;;23.47;22.30;;;;;;;22.06;100.00;100488.31;4927057;29;20436;-38
2023/09/20 11:22:07;;;;;;;24.37;22.90;;;;;;;22.16;100.00;100482.81;4934472;29;20960;-38
2023/09/20 11:24:38;;;;;;;23.87;22.87;;;;;;;22.38;100.00;100483.25;4926762;29;20446;-42
2023/09/20 11:27:06;;;;;;;22.70;21.80;;;;;;;22.39;100.00;100481.38;4934423;29;20443;-43
2023/09/20 11:29:38;;;;;;;24.23;22.97;;;;;;;22.52;100.00;100484.25;4935146;29;20475;-39
2023/09/20 11:32:09;;;;;;;22.07;21.10;;;;;;;22.73;100.00;100486.91;4934291;29;20448;-44
2023/09/20 11:34:44;;;;;;;22.00;21.10;;;;;;;22.74;100.00;100493.94;4926182;29;20436;-42
2023/09/20 11:37:17;;;;;;;24.37;22.77;;;;;;;22.73;100.00;100495.84;4933478;29;20432;-45
2023/09/20 11:39:46;;;;;;;24.30;23.00;;;;;;;22.63;100.00;100495.06;4933719;29;20884;-43
2023/09/20 11:42:24;;;;;;;23.67;22.10;;;;;;;22.53;100.00;100498.66;4934216;29;20467;-39
2023/09/20 11:45:03;;;;;;;23.50;21.93;;;;;;;22.19;100.00;100511.34;4935082;29;20466;-38
2023/09/20 11:47:52;;;;;;;22.50;21.30;;;;;;;21.95;100.00;100519.31;4926561;29;20463;-41
2023/09/20 11:50:22;;;;;;;21.93;21.00;;;;;;;21.80;100.00;100528.28;4933887;29;20864;-38
2023/09/20 11:52:50;;;;;;;23.63;22.53;;;;;;;21.63;100.00;100525.06;4934083;29;20464;-43
2023/09/20 11:55:19;;;;;;;21.50;20.40;;;;;;;21.56;100.00;100519.13;4934640;29;20972;-38